Time;durP1;ratioP1;P1;durP2;ratioP2;P2;SDS_P1;SDS_P2;PMS_P1;PMS_P2;Temp;Humidity;BMP_temperature;BMP_pressure;BME280_temperature;BME280_humidity;BME280_pressure;Samples;Min_cycle;Max_cycle;Signal;HPM_P1;HPM_P2
2022/07/13 00:02:00;;;;;;;2.12;0.80;;;;;;;19.23;100.00;98830.91;1672019;83;21049;-78
2022/07/13 00:04:27;;;;;;;2.40;0.70;;;;;;;19.23;100.00;98823.16;1653921;85;21040;-81
2022/07/13 00:06:58;;;;;;;1.15;0.60;;;;;;;19.23;100.00;98828.73;1674031;83;21476;-78
2022/07/13 00:09:29;;;;;;;2.35;1.07;;;;;;;19.23;100.00;98821.76;1670069;85;21485;-80
2022/07/13 00:12:02;;;;;;;1.20;0.70;;;;;;;19.21;100.00;98818.75;1666844;83;21070;-73
2022/07/13 00:14:33;;;;;;;1.67;0.72;;;;;;;19.21;100.00;98817.35;1669538;85;21072;-75
2022/07/13 00:17:02;;;;;;;11.05;2.25;;;;;;;19.19;100.00;98815.55;1672167;83;21028;-76
2022/07/13 00:19:28;;;;;;;2.15;0.70;;;;;;;19.16;100.00;98809.95;1691336;82;21322;-78
2022/07/13 00:21:57;;;;;;;3.70;0.85;;;;;;;19.20;100.00;98805.99;1664118;85;21520;-79
2022/07/13 00:24:33;;;;;;;2.80;0.60;;;;;;;19.23;100.00;98806.40;1673705;83;21056;-80
2022/07/13 00:26:59;;;;;;;2.22;0.75;;;;;;;19.23;100.00;98802.22;1674919;83;21056;-72
2022/07/13 00:29:28;;;;;;;4.42;0.90;;;;;;;19.24;100.00;98798.22;1671837;85;21069;-77
2022/07/13 00:31:58;;;;;;;1.15;0.90;;;;;;;19.24;100.00;98795.42;1664721;83;21505;-78
2022/07/13 00:34:25;;;;;;;1.72;0.80;;;;;;;19.23;100.00;98790.42;1670166;85;21051;-76
2022/07/13 00:36:53;;;;;;;2.42;0.68;;;;;;;19.17;100.00;98782.25;1671220;83;21958;-77
2022/07/13 00:39:19;;;;;;;1.67;0.60;;;;;;;19.14;100.00;98774.06;1667766;85;21223;-82
2022/07/13 00:41:49;;;;;;;2.50;0.68;;;;;;;19.15;100.00;98775.67;1671048;85;21052;-77
2022/07/13 00:44:20;;;;;;;2.17;0.60;;;;;;;19.14;100.00;98772.66;1667778;85;21007;-79
2022/07/13 00:46:56;;;;;;;2.95;0.70;;;;;;;19.15;100.00;98763.70;1670887;85;21351;-81
2022/07/13 00:49:26;;;;;;;1.42;0.82;;;;;;;19.15;100.00;98756.72;1666417;83;21940;-74
2022/07/13 00:51:53;;;;;;;2.15;1.12;;;;;;;19.15;100.00;98753.93;1726079;81;21543;-80
2022/07/13 00:54:28;;;;;;;1.67;1.02;;;;;;;19.17;100.00;98749.56;1723776;82;21014;-78
2022/07/13 00:56:58;;;;;;;1.05;0.93;;;;;;;19.19;100.00;98761.72;1721998;81;21047;-75
2022/07/13 00:59:27;;;;;;;2.90;1.00;;;;;;;19.22;100.00;98758.13;1723497;80;21530;-79
2022/07/13 01:01:55;;;;;;;0.82;0.50;;;;;;;19.18;100.00;98745.56;1718616;81;21480;-76
2022/07/13 01:04:27;;;;;;;3.02;0.98;;;;;;;19.14;100.00;98753.13;1731353;82;21034;-77
2022/07/13 01:06:57;;;;;;;2.83;0.80;;;;;;;19.14;100.00;98747.54;1724538;82;21046;-75
2022/07/13 01:09:29;;;;;;;3.47;0.93;;;;;;;19.16;100.00;98754.12;1723503;82;21023;-71
2022/07/13 01:11:59;;;;;;;4.37;1.02;;;;;;;19.15;100.00;98751.14;1731587;82;21133;-75
2022/07/13 01:14:29;;;;;;;2.77;0.82;;;;;;;19.17;100.00;98743.98;1724689;82;21023;-76
2022/07/13 01:16:56;;;;;;;3.12;1.12;;;;;;;19.18;100.00;98742.77;1723539;81;20983;-74
2022/07/13 01:19:25;;;;;;;3.10;1.10;;;;;;;19.13;100.00;98734.78;1680955;83;21528;-77
2022/07/13 01:21:58;;;;;;;0.98;0.75;;;;;;;19.09;100.00;98733.36;1715914;81;21062;-75
2022/07/13 01:24:29;;;;;;;4.15;0.98;;;;;;;19.04;100.00;98732.35;1710719;82;21028;-77
2022/07/13 01:26:56;;;;;;;2.00;0.80;;;;;;;19.01;100.00;98732.34;1719989;81;22010;-80
2022/07/13 01:29:25;;;;;;;3.52;0.98;;;;;;;19.01;100.00;98721.18;1719105;82;21547;-78
2022/07/13 01:32:03;;;;;;;3.77;0.60;;;;;;;19.02;100.00;98726.36;1696902;82;21074;-73
2022/07/13 01:34:32;;;;;;;1.37;0.85;;;;;;;19.03;100.00;98730.77;1719168;82;21086;-79
2022/07/13 01:37:02;;;;;;;4.58;1.20;;;;;;;19.09;100.00;98719.40;1718969;81;21053;-80
2022/07/13 01:39:31;;;;;;;5.17;0.93;;;;;;;19.03;100.00;98719.61;1716589;82;21007;-72
2022/07/13 01:42:00;;;;;;;9.75;1.10;;;;;;;19.04;100.00;98716.22;1719639;81;21055;-72
2022/07/13 01:44:30;;;;;;;1.32;0.95;;;;;;;19.05;100.00;98714.42;1719420;82;21034;-78
2022/07/13 01:46:57;;;;;;;5.03;0.60;;;;;;;19.03;100.00;98713.22;1719536;81;21566;-76
2022/07/13 01:49:24;;;;;;;1.60;0.82;;;;;;;19.04;100.00;98720.41;1722293;81;21035;-79
2022/07/13 01:51:54;;;;;;;2.80;0.93;;;;;;;19.03;100.00;98716.00;1723620;82;21043;-79
2022/07/13 01:54:23;;;;;;;2.35;0.90;;;;;;;18.98;100.00;98715.81;1717646;82;21082;-78
2022/07/13 01:56:51;;;;;;;2.33;0.70;;;;;;;18.96;100.00;98707.84;1724212;81;21031;-78
2022/07/13 01:59:19;;;;;;;3.92;0.80;;;;;;;18.93;100.00;98717.01;1690112;83;21071;-78
2022/07/13 02:01:47;;;;;;;4.70;0.70;;;;;;;18.89;100.00;98714.80;1660812;84;21070;-79
2022/07/13 02:04:18;;;;;;;4.15;0.80;;;;;;;18.80;100.00;98707.42;1724326;82;20991;-75
2022/07/13 02:06:47;;;;;;;3.12;0.53;;;;;;;18.78;100.00;98698.64;1720523;81;21732;-79
2022/07/13 02:09:17;;;;;;;1.52;0.53;;;;;;;18.79;100.00;98708.01;1721330;81;21086;-78
2022/07/13 02:11:43;;;;;;;1.92;0.78;;;;;;;18.79;100.00;98694.65;1730162;82;21014;-74
2022/07/13 02:14:12;;;;;;;1.60;1.25;;;;;;;18.75;100.00;98691.07;1731735;80;21582;-75
2022/07/13 02:16:43;;;;;;;1.85;0.95;;;;;;;18.76;100.00;98694.86;1732042;82;21063;-78
2022/07/13 02:19:11;;;;;;;4.70;0.85;;;;;;;18.79;100.00;98697.44;1734250;80;21129;-77
2022/07/13 02:21:40;;;;;;;1.62;1.00;;;;;;;18.81;100.00;98696.45;1735283;80;21077;-74
2022/07/13 02:24:09;;;;;;;2.15;0.70;;;;;;;18.76;100.00;98694.86;1729850;80;21081;-74
2022/07/13 02:26:37;;;;;;;4.58;1.00;;;;;;;18.75;100.00;98690.45;1732181;82;20967;-79
2022/07/13 02:29:05;;;;;;;3.72;0.90;;;;;;;18.72;100.00;98684.27;1732943;80;21818;-75
2022/07/13 02:31:38;;;;;;;4.25;0.80;;;;;;;18.70;100.00;98682.47;1732001;82;21514;-74
2022/07/13 02:34:12;;;;;;;5.42;1.70;;;;;;;18.72;100.00;98682.30;1729516;80;21082;-83
2022/07/13 02:36:38;;;;;;;3.55;0.88;;;;;;;18.70;100.00;98678.29;1734773;82;21118;-74
2022/07/13 02:39:05;;;;;;;1.75;0.82;;;;;;;18.67;100.00;98681.87;1734031;80;21058;-77
2022/07/13 02:41:35;;;;;;;4.92;0.98;;;;;;;18.63;100.00;98680.47;1732438;82;21081;-78
2022/07/13 02:44:02;;;;;;;1.25;0.85;;;;;;;18.60;100.00;98678.48;1732291;80;21022;-73
2022/07/13 02:46:34;;;;;;;1.00;0.60;;;;;;;18.56;100.00;98677.69;1686185;84;21397;-76
2022/07/13 02:49:03;;;;;;;4.10;0.90;;;;;;;18.53;100.00;98672.29;1669624;84;21048;-77
2022/07/13 02:51:35;;;;;;;3.25;0.93;;;;;;;18.54;100.00;98668.33;1732389;82;21062;-76
2022/07/13 02:54:04;;;;;;;1.77;0.93;;;;;;;18.52;100.00;98673.50;1731639;80;21562;-77
2022/07/13 02:56:33;;;;;;;1.17;0.80;;;;;;;18.52;100.00;98672.69;1732080;82;21047;-77
2022/07/13 02:59:01;;;;;;;3.20;0.70;;;;;;;18.49;100.00;98668.70;1732636;81;21558;-75
2022/07/13 03:01:41;;;;;;;2.17;0.70;;;;;;;18.48;100.00;98667.91;1732977;81;21042;-73
2022/07/13 03:04:11;;;;;;;2.80;0.82;;;;;;;18.46;100.00;98664.70;1714261;82;21027;-74
2022/07/13 03:06:45;;;;;;;7.37;1.10;;;;;;;18.43;100.00;98667.48;1726845;82;21117;-77
2022/07/13 03:09:12;;;;;;;1.35;0.72;;;;;;;18.43;100.00;98662.71;1727365;81;21626;-77
2022/07/13 03:11:44;;;;;;;3.98;0.68;;;;;;;18.43;100.00;98664.11;1730060;81;21036;-74
2022/07/13 03:14:10;;;;;;;2.92;0.78;;;;;;;18.39;100.00;98649.34;1731674;82;21543;-77
2022/07/13 03:16:49;;;;;;;3.75;1.52;;;;;;;18.39;100.00;98656.31;1731256;82;21043;-76
2022/07/13 03:19:22;;;;;;;2.98;1.10;;;;;;;18.41;100.00;98656.72;1730758;81;21082;-76
2022/07/13 03:21:57;;;;;;;3.30;1.10;;;;;;;18.45;100.00;98657.55;1728728;81;21049;-76
2022/07/13 03:24:24;;;;;;;3.58;1.10;;;;;;;18.44;100.00;98650.35;1728123;81;21125;-77
2022/07/13 03:26:53;;;;;;;1.60;0.65;;;;;;;18.38;100.00;98647.76;1717683;81;21078;-77
2022/07/13 03:29:21;;;;;;;2.17;0.80;;;;;;;18.37;100.00;98650.36;1732283;81;21142;-75
2022/07/13 03:32:07;;;;;;;1.45;0.80;;;;;;;18.38;100.00;98656.12;1731767;81;21042;-79
2022/07/13 03:34:44;;;;;;;6.53;0.98;;;;;;;18.34;100.00;98648.33;1730521;81;21087;-71
2022/07/13 03:37:26;;;;;;;0.95;0.57;;;;;;;18.35;100.00;98649.95;1737675;81;21086;-72
2022/07/13 03:39:53;;;;;;;1.80;0.75;;;;;;;18.30;100.00;98638.59;1730453;81;21054;-81
2022/07/13 03:42:21;;;;;;;2.65;0.88;;;;;;;18.30;100.00;98641.97;1730998;82;21081;-71
2022/07/13 03:44:50;;;;;;;1.15;0.70;;;;;;;18.31;100.00;98637.39;1694610;84;21045;-68
2022/07/13 03:47:24;;;;;;;2.52;0.70;;;;;;;18.31;100.00;98641.56;1677987;84;21086;-79
2022/07/13 03:49:51;;;;;;;1.30;0.80;;;;;;;18.29;100.00;98640.38;1731081;80;21106;-67
2022/07/13 03:52:21;;;;;;;1.80;0.75;;;;;;;18.27;100.00;98633.00;1713114;81;21077;-71
2022/07/13 03:54:50;;;;;;;4.10;0.80;;;;;;;18.28;100.00;98623.44;1729647;81;21049;-69
2022/07/13 03:57:23;;;;;;;2.65;0.75;;;;;;;18.29;100.00;98627.84;1735825;81;21072;-79
2022/07/13 03:59:50;;;;;;;3.47;0.60;;;;;;;18.29;100.00;98626.44;1717854;81;21056;-73
2022/07/13 04:02:21;;;;;;;4.35;0.80;;;;;;;18.29;100.00;98633.41;1693103;81;21067;-64
2022/07/13 04:04:51;;;;;;;1.85;0.68;;;;;;;18.31;100.00;98633.80;1724263;81;21082;-74
2022/07/13 04:07:21;;;;;;;2.65;0.53;;;;;;;18.32;100.00;98635.41;1726328;81;21067;-73
2022/07/13 04:09:59;;;;;;;2.37;0.62;;;;;;;18.33;100.00;98634.20;1728810;81;21102;-76
2022/07/13 04:12:26;;;;;;;0.60;0.60;;;;;;;18.35;100.00;98633.22;1727165;81;20984;-78
2022/07/13 04:14:57;;;;;;;1.35;0.78;;;;;;;18.38;100.00;98633.81;1736466;81;21028;-79
2022/07/13 04:17:24;;;;;;;1.32;0.70;;;;;;;18.43;100.00;98633.44;1729008;81;21089;-81
2022/07/13 04:19:58;;;;;;;0.72;0.57;;;;;;;18.45;100.00;98624.08;1731666;81;21542;-79
2022/07/13 04:22:25;;;;;;;2.45;0.80;;;;;;;18.43;100.00;98621.47;1739565;81;21089;-78
2022/07/13 04:24:52;;;;;;;1.57;0.85;;;;;;;18.43;100.00;98626.46;1738626;81;21026;-83
2022/07/13 04:27:22;;;;;;;2.27;0.65;;;;;;;18.40;100.00;98619.48;1732931;81;21575;-76
2022/07/13 04:29:53;;;;;;;2.30;0.68;;;;;;;18.41;100.00;98626.05;1737263;81;21061;-67
2022/07/13 04:32:23;;;;;;;1.52;0.72;;;;;;;18.42;100.00;98612.33;1732872;81;21077;-76
2022/07/13 04:34:51;;;;;;;0.90;0.50;;;;;;;18.45;100.00;98616.30;1736459;81;22379;-78
2022/07/13 04:37:21;;;;;;;4.05;0.80;;;;;;;18.46;100.00;98608.94;1729465;81;21095;-72
2022/07/13 04:39:52;;;;;;;3.33;1.17;;;;;;;18.52;100.00;98613.53;1733102;81;21542;-80
2022/07/13 04:42:21;;;;;;;2.12;0.57;;;;;;;18.52;100.00;98607.95;1735091;81;21002;-78
2022/07/13 04:44:48;;;;;;;1.27;0.65;;;;;;;18.53;100.00;98605.35;1743175;81;21072;-80
2022/07/13 04:47:16;;;;;;;0.62;0.37;;;;;;;18.54;100.00;98602.78;1737760;81;22484;-76
2022/07/13 04:49:53;;;;;;;1.02;0.50;;;;;;;18.53;100.00;98613.72;1734202;81;21029;-75
2022/07/13 04:52:24;;;;;;;1.15;0.60;;;;;;;18.56;100.00;98605.17;1740946;80;20995;-73
2022/07/13 04:54:56;;;;;;;1.17;0.80;;;;;;;18.49;100.00;98605.97;1707018;82;21000;-78
2022/07/13 04:57:27;;;;;;;1.60;0.60;;;;;;;18.54;100.00;98605.58;1705085;82;20987;-81
2022/07/13 04:59:53;;;;;;;0.42;0.42;;;;;;;18.57;100.00;98606.75;1667244;84;21168;-76
2022/07/13 05:02:22;;;;;;;3.02;0.55;;;;;;;18.62;100.00;98600.78;1720474;82;21002;-81
2022/07/13 05:04:50;;;;;;;1.47;0.70;;;;;;;18.64;100.00;98603.98;1740841;82;21517;-80
2022/07/13 05:07:17;;;;;;;1.50;0.50;;;;;;;18.69;100.00;98599.99;1739907;80;21441;-78
2022/07/13 05:09:46;;;;;;;2.50;0.42;;;;;;;18.69;100.00;98593.82;1741998;80;21037;-80
2022/07/13 05:12:13;;;;;;;2.50;0.57;;;;;;;18.85;100.00;98602.40;1736927;82;21593;-76
2022/07/13 05:14:40;;;;;;;2.92;0.57;;;;;;;18.83;100.00;98584.63;1741994;81;21016;-82
2022/07/13 05:17:08;;;;;;;2.22;0.70;;;;;;;18.73;100.00;98596.00;1706209;83;21570;-79
2022/07/13 05:19:41;;;;;;;4.53;0.80;;;;;;;18.70;100.00;98600.98;1668708;85;21060;-80
2022/07/13 05:22:11;;;;;;;0.35;0.35;;;;;;;18.71;100.00;98599.78;1726231;82;21525;-77
2022/07/13 05:24:43;;;;;;;0.95;0.60;;;;;;;18.70;100.00;98597.39;1741245;82;22027;-77
2022/07/13 05:27:07;;;;;;;1.72;0.70;;;;;;;18.68;100.00;98601.97;1741833;81;21089;-81
2022/07/13 05:29:37;;;;;;;0.90;0.47;;;;;;;18.72;100.00;98594.41;1742071;81;21518;-77
2022/07/13 05:32:06;;;;;;;1.70;0.40;;;;;;;18.71;100.00;98589.23;1742014;82;21460;-77
2022/07/13 05:34:34;;;;;;;2.35;0.93;;;;;;;18.69;100.00;98592.42;1738411;82;21062;-79
2022/07/13 05:37:01;;;;;;;6.03;0.50;;;;;;;18.67;100.00;98588.42;1742191;80;21268;-72
2022/07/13 05:39:30;;;;;;;9.30;0.93;;;;;;;18.69;100.00;98584.06;1743501;79;21021;-79
2022/07/13 05:41:59;;;;;;;0.60;0.40;;;;;;;18.73;100.00;98593.83;1739996;82;21078;-78
2022/07/13 05:44:26;;;;;;;0.93;0.40;;;;;;;18.73;100.00;98591.03;1755989;80;21029;-77
2022/07/13 05:47:04;;;;;;;2.72;0.33;;;;;;;18.76;100.00;98584.66;1733061;81;21045;-80
2022/07/13 05:49:39;;;;;;;0.72;0.55;;;;;;;18.71;100.00;98586.45;1747212;80;21227;-74
2022/07/13 05:52:10;;;;;;;2.62;0.70;;;;;;;18.70;100.00;98592.62;1746687;80;21067;-66
2022/07/13 05:54:38;;;;;;;4.33;0.70;;;;;;;18.71;100.00;98589.23;1744706;80;21001;-79
2022/07/13 05:57:07;;;;;;;1.87;0.40;;;;;;;18.70;100.00;98598.20;1750969;80;21044;-77
2022/07/13 05:59:34;;;;;;;2.98;0.62;;;;;;;18.69;100.00;98591.03;1759627;79;21067;-73
2022/07/13 06:02:03;;;;;;;1.77;0.47;;;;;;;18.64;100.00;98593.41;1757785;80;21261;-73
2022/07/13 06:04:34;;;;;;;0.95;0.45;;;;;;;18.67;100.00;98591.22;1755873;80;21084;-70
2022/07/13 06:07:04;;;;;;;1.60;0.65;;;;;;;18.70;100.00;98592.62;1745904;80;21078;-75
2022/07/13 06:09:34;;;;;;;0.82;0.50;;;;;;;18.65;100.00;98588.02;1673359;83;21098;-78
2022/07/13 06:12:05;;;;;;;2.58;0.60;;;;;;;18.68;100.00;98589.42;1688122;84;21141;-70
2022/07/13 06:14:33;;;;;;;2.00;0.60;;;;;;;18.69;100.00;98591.03;1719491;82;21246;-74
2022/07/13 06:17:03;;;;;;;1.90;0.60;;;;;;;18.65;100.00;98590.22;1714877;82;21466;-78
2022/07/13 06:19:36;;;;;;;1.17;0.70;;;;;;;18.75;100.00;98587.84;1721931;82;21050;-80
2022/07/13 06:22:03;;;;;;;1.42;0.62;;;;;;;18.75;100.00;98586.45;1717244;82;21522;-81
2022/07/13 06:24:33;;;;;;;0.85;0.50;;;;;;;18.81;100.00;98594.61;1708013;82;21087;-79
2022/07/13 06:27:03;;;;;;;3.27;0.72;;;;;;;18.76;100.00;98583.85;1693064;83;21177;-76
2022/07/13 06:29:35;;;;;;;;;;;;;;;18.91;100.00;98588.83;1694272;83;21513;-75
2022/07/13 06:32:07;;;;;;;1.40;0.80;;;;;;;18.89;100.00;98582.84;1695528;83;20521;-77
2022/07/13 06:34:37;;;;;;;2.02;0.75;;;;;;;18.89;100.00;98585.03;1731510;80;21065;-80
2022/07/13 06:37:11;;;;;;;6.03;0.60;;;;;;;18.92;100.00;98587.64;1735084;80;21089;-74
2022/07/13 06:39:40;;;;;;;1.15;0.80;;;;;;;18.94;100.00;98585.23;1745148;80;21079;-72
2022/07/13 06:42:10;;;;;;;2.10;0.50;;;;;;;18.92;100.00;98593.23;1746649;82;21567;-75
2022/07/13 06:45:22;;;;;;;1.12;0.60;;;;;;;18.98;100.00;98585.45;1740668;80;21537;-73
2022/07/13 06:48:03;;;;;;;;;;;;;;;18.98;100.00;98590.22;1744522;80;21061;-82
2022/07/13 06:50:48;;;;;;;1.40;0.68;;;;;;;18.96;100.00;98596.20;1741572;80;20334;-76
2022/07/13 06:53:17;;;;;;;0.78;0.72;;;;;;;18.98;100.00;98593.81;1741555;80;22175;-80
2022/07/13 06:55:51;;;;;;;0.82;0.55;;;;;;;18.99;100.00;98586.22;1743609;80;21012;-78
2022/07/13 06:58:28;;;;;;;0.50;0.50;;;;;;;19.00;100.00;98600.98;1743381;80;21546;-76
2022/07/13 07:01:00;;;;;;;0.60;0.50;;;;;;;19.03;100.00;98591.22;1739856;80;21008;-76
2022/07/13 07:03:39;;;;;;;1.70;1.07;;;;;;;19.09;100.00;98599.95;1739206;80;21311;-74
2022/07/13 07:06:06;;;;;;;1.05;0.70;;;;;;;19.10;100.00;98594.59;1738437;80;21146;-74
2022/07/13 07:08:35;;;;;;;1.95;0.55;;;;;;;19.11;100.00;98600.39;1740372;80;21034;-76
2022/07/13 07:11:03;;;;;;;1.15;0.50;;;;;;;19.11;100.00;98604.58;1743873;80;21020;-76
2022/07/13 07:13:31;;;;;;;1.50;0.72;;;;;;;19.09;100.00;98597.97;1727428;81;21030;-72
2022/07/13 07:15:59;;;;;;;0.80;0.50;;;;;;;19.12;100.00;98599.80;1702960;84;21070;-76
2022/07/13 07:18:31;;;;;;;3.12;0.65;;;;;;;19.14;100.00;98600.98;1665345;84;21118;-73
2022/07/13 07:21:00;;;;;;;1.62;0.68;;;;;;;19.16;100.00;98605.57;1732034;81;21043;-72
2022/07/13 07:23:39;;;;;;;3.45;0.60;;;;;;;19.14;100.00;98605.17;1725193;81;21093;-74
2022/07/13 07:26:07;;;;;;;4.95;0.60;;;;;;;19.20;100.00;98598.00;1702187;82;21053;-75
2022/07/13 07:28:34;;;;;;;1.27;0.60;;;;;;;19.25;100.00;98593.19;1731927;81;21055;-76
2022/07/13 07:31:10;;;;;;;4.03;0.55;;;;;;;19.27;100.00;98601.38;1732094;82;21028;-74
2022/07/13 07:33:44;;;;;;;1.90;0.40;;;;;;;19.30;100.00;98591.38;1732907;81;21020;-73
2022/07/13 07:36:23;;;;;;;2.83;0.60;;;;;;;19.31;100.00;98591.59;1729861;81;21623;-76
2022/07/13 07:38:58;;;;;;;0.60;0.50;;;;;;;19.35;100.00;98596.56;1704600;82;21000;-74
2022/07/13 07:41:31;;;;;;;0.68;0.60;;;;;;;19.29;100.00;98589.21;1703243;83;21116;-74
2022/07/13 07:44:00;;;;;;;1.65;0.50;;;;;;;19.28;100.00;98578.42;1727300;81;21208;-76
2022/07/13 07:46:30;;;;;;;1.40;0.60;;;;;;;19.31;100.00;98588.80;1727765;82;20999;-75
2022/07/13 07:49:03;;;;;;;0.67;0.60;;;;;;;19.32;100.00;98588.99;1726019;82;21554;-73
2022/07/13 07:51:36;;;;;;;0.57;0.57;;;;;;;19.31;100.00;98587.41;1709097;82;21012;-72
2022/07/13 07:54:04;;;;;;;0.78;0.40;;;;;;;19.31;100.00;98588.80;1733209;82;20967;-74
2022/07/13 07:56:34;;;;;;;1.82;0.70;;;;;;;19.32;100.00;98591.19;1734545;81;21752;-73
2022/07/13 07:59:04;;;;;;;1.27;0.78;;;;;;;19.36;100.00;98596.77;1726062;81;21136;-69
2022/07/13 08:01:32;;;;;;;1.50;0.60;;;;;;;19.38;100.00;98598.54;1728801;81;20979;-74
2022/07/13 08:04:01;;;;;;;1.05;0.60;;;;;;;19.38;100.00;98599.94;1725784;81;21012;-72
2022/07/13 08:06:34;;;;;;;2.27;0.88;;;;;;;19.40;100.00;98605.92;1728447;81;21680;-71
2022/07/13 08:09:11;;;;;;;9.50;0.83;;;;;;;19.40;100.00;98608.72;1728401;81;21897;-72
2022/07/13 08:11:37;;;;;;;0.80;0.47;;;;;;;19.38;100.00;98612.50;1725806;81;21017;-75
2022/07/13 08:14:05;;;;;;;2.42;0.53;;;;;;;19.34;100.00;98615.92;1727645;82;21008;-76
2022/07/13 08:16:36;;;;;;;1.35;0.72;;;;;;;19.36;100.00;98618.31;1728433;81;21086;-72
2022/07/13 08:19:11;;;;;;;3.27;0.85;;;;;;;19.39;100.00;98625.28;1726031;81;21086;-75
2022/07/13 08:21:39;;;;;;;0.68;0.40;;;;;;;19.38;100.00;98622.28;1716002;82;21019;-70
2022/07/13 08:24:12;;;;;;;2.17;0.65;;;;;;;19.36;100.00;98621.10;1709441;82;21051;-75
2022/07/13 08:26:42;;;;;;;1.82;0.78;;;;;;;19.34;100.00;98616.70;1716460;81;21122;-71
2022/07/13 08:29:13;;;;;;;3.00;0.90;;;;;;;19.37;100.00;98620.70;1715541;81;21099;-71
2022/07/13 08:31:44;;;;;;;4.42;0.85;;;;;;;19.39;100.00;98622.49;1714327;81;20991;-69
2022/07/13 08:39:52;;;;;;;1.57;0.60;;;;;;;19.41;100.00;98623.48;1713708;81;21016;-70
2022/07/13 08:42:19;;;;;;;1.47;0.60;;;;;;;19.37;100.00;98626.28;1723804;81;21014;-74
2022/07/13 08:44:45;;;;;;;0.53;0.50;;;;;;;19.37;100.00;98620.70;1713096;81;21055;-70
2022/07/13 08:47:14;;;;;;;1.85;0.53;;;;;;;19.37;100.00;98622.09;1713196;81;21023;-73
2022/07/13 08:49:51;;;;;;;4.15;0.60;;;;;;;19.37;100.00;98623.48;1722860;80;21000;-73
2022/07/13 08:52:29;;;;;;;1.15;0.60;;;;;;;19.41;100.00;98629.07;1710473;82;21385;-77
2022/07/13 08:55:12;;;;;;;2.05;0.88;;;;;;;19.45;100.00;98623.66;1702102;83;20963;-74
2022/07/13 08:57:46;;;;;;;0.62;0.40;;;;;;;19.50;100.00;98623.07;1703282;82;21613;-74
2022/07/13 09:00:21;;;;;;;0.68;0.50;;;;;;;19.60;100.00;98623.64;1697010;83;21035;-70
2022/07/13 09:02:52;;;;;;;1.27;0.55;;;;;;;19.64;100.00;98630.59;1703973;82;21041;-72
2022/07/13 09:05:22;;;;;;;4.00;0.70;;;;;;;19.68;100.00;98629.41;1687467;83;21027;-74
2022/07/13 09:08:05;;;;;;;1.35;0.40;;;;;;;19.73;100.00;98618.99;1708833;83;21026;-72
2022/07/13 09:10:51;;;;;;;1.75;0.40;;;;;;;19.79;100.00;98619.56;1701387;83;21064;-74
2022/07/13 09:13:52;;;;;;;1.37;0.53;;;;;;;19.87;100.00;98613.36;1702473;83;21208;-73
2022/07/13 09:16:26;;;;;;;3.22;0.35;;;;;;;19.88;100.00;98619.73;1707122;82;21448;-77
2022/07/13 09:18:59;;;;;;;0.20;0.20;;;;;;;19.87;100.00;98620.35;1710390;83;21035;-75
2022/07/13 09:21:33;;;;;;;0.25;0.23;;;;;;;19.90;100.00;98624.31;1698459;83;21644;-75
2022/07/13 09:24:03;;;;;;;0.33;0.30;;;;;;;19.89;100.00;98616.53;1709851;83;21078;-74
2022/07/13 09:26:43;;;;;;;0.75;0.20;;;;;;;19.87;100.00;98616.16;1707890;83;21141;-70
2022/07/13 09:29:14;;;;;;;1.02;0.40;;;;;;;19.85;100.00;98619.95;1709441;82;21086;-71
2022/07/13 09:31:59;;;;;;;0.33;0.20;;;;;;;19.86;100.00;98615.95;1703311;82;21082;-75
2022/07/13 09:34:54;;;;;;;0.40;0.23;;;;;;;19.88;100.00;98619.73;1684898;83;21533;-68
2022/07/13 09:37:31;;;;;;;2.50;0.30;;;;;;;19.93;100.00;98610.92;1704400;82;21112;-72
2022/07/13 09:40:06;;;;;;;1.40;0.20;;;;;;;20.00;100.00;98614.28;1702760;83;21122;-77
2022/07/13 09:42:40;;;;;;;1.45;0.25;;;;;;;20.02;100.00;98621.08;1703835;82;21030;-74
2022/07/13 09:48:00;;;;;;;0.20;0.20;;;;;;;20.00;100.00;98611.49;1698892;82;21701;-73
2022/07/13 09:50:41;;;;;;;1.57;0.20;;;;;;;19.94;100.00;98605.55;1698352;82;21510;-73
2022/07/13 09:53:38;;;;;;;0.80;0.42;;;;;;;19.92;100.00;98612.95;1718084;82;21495;-76
2022/07/13 09:56:10;;;;;;;0.37;0.28;;;;;;;19.93;100.00;98610.33;1732728;80;21092;-73
2022/07/13 09:58:39;;;;;;;0.95;0.40;;;;;;;20.01;100.00;98622.89;1727364;80;20991;-73
2022/07/13 10:01:08;;;;;;;0.65;0.30;;;;;;;20.01;100.00;98619.47;1667251;85;21027;-77
2022/07/13 10:03:45;;;;;;;0.28;0.28;;;;;;;20.06;100.00;98621.87;1677988;85;21072;-70
2022/07/13 10:06:15;;;;;;;1.02;0.40;;;;;;;20.04;100.00;98618.70;1707129;82;21570;-74
2022/07/13 10:08:53;;;;;;;0.37;0.30;;;;;;;20.06;100.00;98615.50;1672804;85;21068;-76
2022/07/13 10:11:23;;;;;;;0.30;0.30;;;;;;;20.04;100.00;98605.33;1703857;83;21074;-74
2022/07/13 10:13:57;;;;;;;0.88;0.47;;;;;;;20.04;100.00;98608.12;1707750;83;21025;-71
2022/07/13 10:16:32;;;;;;;1.12;0.30;;;;;;;20.02;100.00;98604.90;1702210;83;21058;-71
2022/07/13 10:19:05;;;;;;;0.30;0.28;;;;;;;20.03;100.00;98598.09;1674530;83;21041;-74
2022/07/13 10:22:09;;;;;;;0.57;0.35;;;;;;;20.01;100.00;98599.91;1669415;84;20995;-70
2022/07/13 10:24:36;;;;;;;0.72;0.50;;;;;;;20.03;100.00;98600.89;1670378;84;21549;-72
2022/07/13 10:27:28;;;;;;;1.47;0.20;;;;;;;20.05;100.00;98597.13;1667556;84;21090;-70
2022/07/13 10:30:07;;;;;;;0.30;0.28;;;;;;;20.12;100.00;98601.88;1668171;84;21059;-75
2022/07/13 10:32:44;;;;;;;1.87;0.33;;;;;;;20.08;100.00;98587.91;1671087;85;21121;-73
2022/07/13 10:35:17;;;;;;;1.25;0.30;;;;;;;20.05;100.00;98578.95;1669997;84;21021;-76
2022/07/13 10:38:20;;;;;;;3.00;0.37;;;;;;;20.10;100.00;98577.72;1663937;85;21013;-75
2022/07/13 10:40:46;;;;;;;0.70;0.40;;;;;;;20.10;100.00;98591.11;1669451;85;21087;-66
2022/07/13 10:43:16;;;;;;;2.00;0.35;;;;;;;20.10;100.00;98584.11;1670830;85;21027;-77
2022/07/13 10:45:46;;;;;;;0.20;0.20;;;;;;;20.10;100.00;98581.91;1669397;84;21254;-79
2022/07/13 10:48:30;;;;;;;0.53;0.37;;;;;;;20.08;100.00;98582.95;1669286;85;21043;-77
2022/07/13 10:51:02;;;;;;;0.33;0.33;;;;;;;20.06;100.00;98588.33;1668888;85;21025;-72
2022/07/13 10:53:46;;;;;;;0.50;0.40;;;;;;;20.09;100.00;98585.33;1666525;84;22145;-72
2022/07/13 10:56:24;;;;;;;2.62;0.45;;;;;;;20.12;100.00;98590.10;1669848;84;21012;-77
2022/07/13 10:58:53;;;;;;;4.83;0.45;;;;;;;20.13;100.00;98591.68;1656415;83;21542;-78
2022/07/13 11:01:45;;;;;;;1.15;0.50;;;;;;;20.17;100.00;98597.26;1671897;83;21031;-77
2022/07/13 11:04:15;;;;;;;1.47;0.33;;;;;;;20.13;100.00;98599.30;1670254;83;21046;-75
2022/07/13 11:06:57;;;;;;;2.42;0.30;;;;;;;20.12;100.00;98609.67;1667577;85;21043;-73
2022/07/13 11:09:27;;;;;;;4.22;0.50;;;;;;;20.05;100.00;98602.71;1667568;83;21095;-76
2022/07/13 11:11:57;;;;;;;1.25;0.40;;;;;;;20.02;100.00;98607.10;1653154;85;21612;-78
2022/07/13 11:14:49;;;;;;;1.55;0.55;;;;;;;20.05;100.00;98605.50;1665575;83;21582;-75
2022/07/13 11:17:28;;;;;;;0.98;0.57;;;;;;;20.05;100.00;98609.70;1670342;83;21013;-68
2022/07/13 11:20:09;;;;;;;2.17;0.40;;;;;;;20.02;100.00;98607.10;1682897;83;21054;-79
2022/07/13 11:25:32;;;;;;;2.92;0.40;;;;;;;19.92;100.00;98607.95;1676716;83;21054;-75
2022/07/13 11:28:24;;;;;;;1.32;0.70;;;;;;;19.98;100.00;98605.53;1674354;85;21052;-77
2022/07/13 11:30:55;;;;;;;0.40;0.37;;;;;;;19.92;100.00;98600.36;1677425;83;21067;-76
2022/07/13 11:33:35;;;;;;;0.55;0.40;;;;;;;19.91;100.00;98590.97;1681291;83;21617;-80
2022/07/13 11:36:04;;;;;;;2.67;0.40;;;;;;;19.94;100.00;98595.77;1677441;83;21514;-78
2022/07/13 11:38:37;;;;;;;4.10;0.40;;;;;;;19.95;100.00;98591.16;1678263;83;21878;-73
2022/07/13 11:41:24;;;;;;;0.75;0.40;;;;;;;19.97;100.00;98590.75;1676270;83;21090;-78
2022/07/13 11:43:51;;;;;;;0.42;0.42;;;;;;;19.98;100.00;98591.56;1681632;84;21098;-76
2022/07/13 11:46:25;;;;;;;2.37;0.55;;;;;;;19.98;100.00;98593.73;1675702;83;21502;-79
2022/07/13 11:49:03;;;;;;;0.40;0.30;;;;;;;19.99;100.00;98598.73;1678713;85;20998;-76
2022/07/13 11:51:30;;;;;;;0.53;0.25;;;;;;;20.03;100.00;98600.89;1676295;84;21744;-80
2022/07/13 11:54:12;;;;;;;0.98;0.45;;;;;;;20.04;100.00;98608.12;1658656;84;21066;-79
2022/07/13 11:56:58;;;;;;;1.45;0.33;;;;;;;20.04;100.00;98602.53;1670803;83;21034;-73
2022/07/13 11:59:39;;;;;;;1.85;0.30;;;;;;;20.03;100.00;98603.69;1666461;83;21090;-72
2022/07/13 12:02:08;;;;;;;1.47;0.40;;;;;;;19.99;100.00;98607.92;1668970;85;21654;-73